Time;durP1;ratioP1;P1;durP2;ratioP2;P2;SDS_P1;SDS_P2;PMS_P1;PMS_P2;Temp;Humidity;BMP_temperature;BMP_pressure;BME280_temperature;BME280_humidity;BME280_pressure;Samples;Min_cycle;Max_cycle;Signal;HPM_P1;HPM_P2
2021/08/09 00:00:36;;;;;;;5.03;2.00;;;;;;;16.54;76.10;101061.38;5033299;28;20044;-65
2021/08/09 00:03:03;;;;;;;8.93;2.60;;;;;;;16.50;76.18;101055.41;5030081;28;20052;-66
2021/08/09 00:05:29;;;;;;;7.03;1.73;;;;;;;16.45;76.41;101052.97;5031879;28;20045;-66
2021/08/09 00:07:57;;;;;;;7.22;1.80;;;;;;;16.42;76.52;101053.06;5025403;28;20099;-67
2021/08/09 00:10:23;;;;;;;5.85;2.03;;;;;;;16.39;76.65;101054.97;5027251;28;20128;-66
2021/08/09 00:12:50;;;;;;;5.18;2.10;;;;;;;16.37;76.96;101052.41;5031696;28;20046;-66
2021/08/09 00:15:16;;;;;;;8.68;2.30;;;;;;;16.27;77.08;101053.66;5032071;28;20432;-65
2021/08/09 00:17:43;;;;;;;6.28;2.38;;;;;;;16.22;77.02;101060.88;5031714;28;20498;-66
2021/08/09 00:20:11;;;;;;;8.60;2.50;;;;;;;16.16;77.35;101054.94;5032822;28;20072;-65
2021/08/09 00:22:38;;;;;;;4.75;1.60;;;;;;;16.13;77.47;101062.91;5031610;28;20053;-65
2021/08/09 00:25:07;;;;;;;6.45;2.35;;;;;;;16.13;77.67;101051.56;5030427;28;20049;-67
2021/08/09 00:27:34;;;;;;;6.07;2.00;;;;;;;16.07;77.72;101059.69;5032045;28;20107;-65
2021/08/09 00:30:00;;;;;;;7.70;1.90;;;;;;;16.05;77.74;101061.50;5031884;28;20057;-65
2021/08/09 00:32:27;;;;;;;8.20;2.00;;;;;;;16.03;77.77;101058.91;5038265;28;20061;-66
2021/08/09 00:34:53;;;;;;;5.03;1.63;;;;;;;15.97;78.23;101054.75;5032032;28;20118;-65
2021/08/09 00:37:20;;;;;;;6.10;1.85;;;;;;;15.95;78.27;101060.97;5032553;28;20049;-65
2021/08/09 00:39:46;;;;;;;10.27;1.90;;;;;;;15.93;78.16;101057.53;5030537;28;20419;-65
2021/08/09 00:42:14;;;;;;;7.85;1.88;;;;;;;15.86;78.14;101062.19;5036285;28;20115;-65
2021/08/09 00:44:43;;;;;;;6.93;2.85;;;;;;;15.83;78.41;101070.97;5031461;28;20060;-65
2021/08/09 00:47:10;;;;;;;5.07;1.73;;;;;;;15.85;78.66;101066.56;5033440;28;20099;-66
2021/08/09 00:49:36;;;;;;;6.35;1.90;;;;;;;15.83;78.99;101070.13;5034070;28;20469;-67
2021/08/09 00:52:05;;;;;;;6.53;1.80;;;;;;;15.77;78.87;101070.34;5036088;28;20045;-66
2021/08/09 00:54:33;;;;;;;5.78;1.83;;;;;;;15.72;78.94;101075.75;5034083;28;20442;-66
2021/08/09 00:57:00;;;;;;;6.13;1.95;;;;;;;15.66;79.24;101075.97;5030934;28;20049;-65
2021/08/09 00:59:28;;;;;;;5.88;1.85;;;;;;;15.62;79.38;101069.97;5033212;28;20080;-65
2021/08/09 01:01:55;;;;;;;5.25;1.90;;;;;;;15.60;79.49;101073.56;5039498;28;20107;-66
2021/08/09 01:04:21;;;;;;;7.35;1.80;;;;;;;15.57;79.61;101082.41;5039154;28;20083;-65
2021/08/09 01:06:48;;;;;;;9.20;2.38;;;;;;;15.51;79.96;101080.84;5033960;28;20046;-65
2021/08/09 01:09:20;;;;;;;6.18;2.03;;;;;;;15.48;80.13;101080.06;5038392;28;20053;-65
2021/08/09 01:11:52;;;;;;;8.95;2.08;;;;;;;15.42;79.87;101081.16;5033757;28;20042;-65
2021/08/09 01:14:28;;;;;;;4.90;1.77;;;;;;;15.39;79.87;101083.88;5033055;28;20053;-67
2021/08/09 01:16:56;;;;;;;8.18;1.88;;;;;;;15.38;80.21;101076.91;5033590;28;20141;-65
2021/08/09 01:19:38;;;;;;;7.57;1.83;;;;;;;15.34;80.32;101075.28;5038415;28;20418;-65
2021/08/09 01:22:10;;;;;;;6.40;1.90;;;;;;;15.33;79.92;101086.69;5023986;28;20037;-65
2021/08/09 01:24:47;;;;;;;10.40;2.17;;;;;;;15.27;80.34;101084.28;5031226;28;20132;-65
2021/08/09 01:27:26;;;;;;;5.40;2.05;;;;;;;15.22;80.63;101085.28;5037921;28;20053;-66
2021/08/09 01:29:57;;;;;;;7.60;2.10;;;;;;;15.22;80.54;101084.44;5024999;28;20053;-65
2021/08/09 01:32:24;;;;;;;6.95;2.10;;;;;;;15.22;80.69;101087.06;5038371;28;20053;-65
2021/08/09 01:34:51;;;;;;;9.80;2.35;;;;;;;15.22;80.37;101090.50;5028175;28;20119;-65
2021/08/09 01:37:20;;;;;;;6.35;1.90;;;;;;;15.27;79.95;101092.13;5036229;28;20052;-66
2021/08/09 01:39:47;;;;;;;8.18;2.08;;;;;;;15.20;80.37;101094.97;5029956;28;20080;-65
2021/08/09 01:42:15;;;;;;;6.47;2.30;;;;;;;15.18;80.31;101096.78;5040565;28;20049;-67
2021/08/09 01:44:42;;;;;;;5.13;1.90;;;;;;;15.20;79.81;101100.22;5032247;28;20061;-65
2021/08/09 01:47:10;;;;;;;6.15;1.90;;;;;;;15.22;79.60;101101.00;5038250;28;20049;-64
2021/08/09 01:49:37;;;;;;;7.13;2.30;;;;;;;15.18;79.69;101104.66;5035408;28;20418;-65
2021/08/09 01:52:05;;;;;;;6.22;2.08;;;;;;;15.13;79.91;101098.69;5030518;28;20049;-66
2021/08/09 01:54:32;;;;;;;6.75;1.85;;;;;;;15.12;80.02;101111.84;5027734;28;20053;-65
2021/08/09 01:56:59;;;;;;;5.85;2.50;;;;;;;15.11;80.02;101110.13;5038740;28;20052;-65
2021/08/09 01:59:26;;;;;;;5.85;1.83;;;;;;;15.11;79.74;101111.00;5028506;28;20053;-65
2021/08/09 02:01:53;;;;;;;7.85;2.08;;;;;;;15.13;79.69;101111.78;5033376;28;20053;-65
2021/08/09 02:04:20;;;;;;;9.20;2.05;;;;;;;15.08;79.70;101106.69;5037621;28;20049;-66
2021/08/09 02:06:47;;;;;;;10.48;2.15;;;;;;;15.04;80.14;101110.34;5032858;28;20064;-67
2021/08/09 02:09:13;;;;;;;6.03;2.08;;;;;;;15.10;79.91;101111.91;5034656;28;20060;-66
2021/08/09 02:11:46;;;;;;;5.85;1.90;;;;;;;15.11;80.12;101112.75;5030963;28;20056;-66
2021/08/09 02:14:16;;;;;;;5.25;2.03;;;;;;;15.06;80.24;101105.03;5020741;28;20058;-65
2021/08/09 02:16:48;;;;;;;9.48;2.33;;;;;;;15.06;80.35;101108.53;5038687;28;20052;-65
2021/08/09 02:19:21;;;;;;;11.30;1.92;;;;;;;15.08;80.64;101105.84;5034700;28;20049;-66
2021/08/09 02:21:53;;;;;;;6.05;2.20;;;;;;;15.08;80.98;101108.47;5037424;28;20041;-65
2021/08/09 02:24:23;;;;;;;8.15;2.58;;;;;;;15.06;81.14;101105.91;5033853;28;20069;-66
2021/08/09 02:26:53;;;;;;;6.00;2.38;;;;;;;15.07;80.99;101101.50;5032154;28;20045;-65
2021/08/09 02:29:25;;;;;;;7.50;1.90;;;;;;;15.07;80.89;101101.50;5033478;28;20061;-65
2021/08/09 02:31:52;;;;;;;7.13;2.15;;;;;;;15.07;80.99;101101.50;5028574;28;20038;-65
2021/08/09 02:34:23;;;;;;;8.02;2.15;;;;;;;15.08;81.49;101093.59;5040741;28;20041;-66
2021/08/09 02:36:50;;;;;;;5.50;1.88;;;;;;;15.09;81.46;101097.09;5028562;28;20049;-66
2021/08/09 02:39:18;;;;;;;7.63;2.13;;;;;;;15.07;81.51;101101.50;5033760;28;20118;-66
2021/08/09 02:41:45;;;;;;;5.10;2.22;;;;;;;15.04;81.43;101093.75;5034753;28;20443;-65
2021/08/09 02:44:12;;;;;;;10.55;2.42;;;;;;;15.07;81.70;101096.28;5030334;28;20050;-67
2021/08/09 02:46:40;;;;;;;7.45;2.33;;;;;;;14.99;81.83;101100.91;5032648;28;20057;-65
2021/08/09 02:49:08;;;;;;;6.10;2.30;;;;;;;14.97;81.88;101100.09;5033221;28;20128;-65
2021/08/09 02:51:36;;;;;;;9.60;2.30;;;;;;;14.97;82.11;101102.72;5036163;28;20503;-66
2021/08/09 02:54:04;;;;;;;11.20;2.58;;;;;;;14.95;81.91;101104.50;5031421;28;20050;-66
2021/08/09 02:56:32;;;;;;;9.13;2.00;;;;;;;14.93;81.81;101096.72;5029110;28;20049;-65
2021/08/09 02:58:59;;;;;;;5.50;1.77;;;;;;;14.95;82.16;101101.91;5029965;28;20049;-65
2021/08/09 03:01:28;;;;;;;6.13;1.67;;;;;;;14.96;81.95;101101.00;5035341;28;20048;-65
2021/08/09 03:03:58;;;;;;;5.93;2.08;;;;;;;14.97;82.05;101103.59;5037994;22;20056;-68
2021/08/09 03:06:25;;;;;;;6.57;2.15;;;;;;;14.93;82.27;101112.44;5016115;28;20566;-68
2021/08/09 03:08:54;;;;;;;5.03;1.88;;;;;;;14.96;81.99;101106.22;5024216;28;20041;-68
2021/08/09 03:11:21;;;;;;;8.98;2.00;;;;;;;14.92;82.60;101101.06;5022494;28;20045;-68
2021/08/09 03:13:49;;;;;;;6.10;1.92;;;;;;;14.92;82.83;101102.84;5029457;28;20049;-68
2021/08/09 03:16:16;;;;;;;7.50;2.05;;;;;;;14.98;82.31;101107.03;5025391;28;20049;-68
2021/08/09 03:18:43;;;;;;;6.18;2.10;;;;;;;14.98;82.36;101101.81;5026088;28;20334;-70
2021/08/09 03:21:09;;;;;;;4.70;1.63;;;;;;;14.98;82.33;101109.66;5021549;28;20061;-68
2021/08/09 03:23:37;;;;;;;8.05;2.63;;;;;;;14.99;82.64;101111.38;5018622;28;20050;-69
2021/08/09 03:26:05;;;;;;;7.10;2.00;;;;;;;14.98;82.60;101109.66;5026359;28;20050;-68
2021/08/09 03:28:31;;;;;;;6.43;2.20;;;;;;;15.01;82.62;101104.34;5024139;28;20113;-68
2021/08/09 03:30:59;;;;;;;8.02;2.05;;;;;;;15.01;82.27;101104.34;5026000;28;20056;-67
2021/08/09 03:33:25;;;;;;;10.75;2.35;;;;;;;15.03;82.44;101110.34;5023522;28;20084;-68
2021/08/09 03:35:52;;;;;;;11.05;2.83;;;;;;;15.02;82.40;101106.91;5026395;28;20050;-68
2021/08/09 03:38:18;;;;;;;11.73;2.10;;;;;;;15.05;82.45;101121.66;5021095;28;20081;-68
2021/08/09 03:40:44;;;;;;;6.65;2.00;;;;;;;15.07;82.07;101112.84;5016057;28;20053;-69
2021/08/09 03:43:12;;;;;;;9.27;2.00;;;;;;;15.03;81.94;101123.47;5028067;28;20054;-68
2021/08/09 03:45:39;;;;;;;6.18;1.98;;;;;;;15.05;82.05;101121.66;5020041;28;20045;-68
2021/08/09 03:48:10;;;;;;;8.85;1.92;;;;;;;15.03;81.98;101129.56;5022543;28;20049;-67
2021/08/09 03:50:36;;;;;;;10.13;1.92;;;;;;;15.06;81.96;101128.63;5023930;28;20056;-68
2021/08/09 03:53:03;;;;;;;5.43;2.40;;;;;;;15.08;81.88;101132.03;5025022;28;20053;-68
2021/08/09 03:55:29;;;;;;;9.65;2.20;;;;;;;15.08;81.57;101127.66;5019566;28;20507;-68
2021/08/09 03:57:56;;;;;;;8.40;2.10;;;;;;;15.09;81.84;101128.53;5027768;28;20068;-68
2021/08/09 04:00:24;;;;;;;8.10;2.20;;;;;;;15.10;81.89;101124.13;5022961;28;20057;-68
2021/08/09 04:02:50;;;;;;;11.60;2.67;;;;;;;15.10;81.82;101125.00;5024322;28;20053;-67
2021/08/09 04:05:17;;;;;;;5.25;2.15;;;;;;;15.11;81.84;101115.38;5020959;28;20038;-68
2021/08/09 04:07:43;;;;;;;7.80;2.30;;;;;;;15.12;81.83;101112.72;5018520;28;20049;-68
2021/08/09 04:10:10;;;;;;;7.85;2.53;;;;;;;15.14;81.90;101115.28;5024654;28;20049;-68
2021/08/09 04:12:37;;;;;;;8.25;2.60;;;;;;;15.13;81.86;101106.53;5022082;28;20049;-68
2021/08/09 04:15:06;;;;;;;8.05;2.05;;;;;;;15.13;81.96;101103.06;5019730;28;20499;-68
2021/08/09 04:17:34;;;;;;;5.57;2.00;;;;;;;15.17;81.93;101109.94;5024858;28;20056;-68
2021/08/09 04:20:01;;;;;;;8.20;2.08;;;;;;;15.18;81.97;101106.38;5031844;28;20510;-72
2021/08/09 04:22:27;;;;;;;7.53;1.80;;;;;;;15.19;82.07;101105.50;5029090;28;20072;-67
2021/08/09 04:24:54;;;;;;;10.05;2.40;;;;;;;15.19;82.19;101108.97;5026420;28;20049;-68
2021/08/09 04:27:20;;;;;;;5.35;2.05;;;;;;;15.20;82.19;101109.81;5033089;28;20037;-68
2021/08/09 04:29:46;;;;;;;9.75;1.80;;;;;;;15.20;82.03;101113.31;5022053;28;20041;-65
2021/08/09 04:32:15;;;;;;;8.90;1.90;;;;;;;15.24;82.12;101106.22;5032771;28;20270;-68
2021/08/09 04:34:43;;;;;;;9.40;2.10;;;;;;;15.26;82.09;101111.38;5027009;28;20045;-68
2021/08/09 04:37:09;;;;;;;8.00;2.30;;;;;;;15.29;82.06;101113.91;5024278;28;20042;-68
2021/08/09 04:39:36;;;;;;;6.75;2.17;;;;;;;15.30;81.98;101113.84;5023115;28;20471;-68
2021/08/09 04:42:02;;;;;;;5.38;2.35;;;;;;;15.29;82.05;101109.53;5028966;28;20690;-68
2021/08/09 04:44:29;;;;;;;5.72;1.80;;;;;;;15.31;81.96;101112.94;5020654;28;20053;-67
2021/08/09 04:46:57;;;;;;;6.38;1.80;;;;;;;15.33;82.07;101115.50;5024340;28;20038;-67
2021/08/09 04:49:23;;;;;;;6.20;2.20;;;;;;;15.35;81.94;101114.56;5030592;28;20396;-67
2021/08/09 04:51:51;;;;;;;6.10;1.98;;;;;;;15.38;81.84;101118.84;5029131;28;20042;-66
2021/08/09 04:54:18;;;;;;;11.18;2.65;;;;;;;15.38;82.22;101113.59;5029004;28;20507;-66
2021/08/09 04:56:45;;;;;;;6.30;2.10;;;;;;;15.38;82.20;101124.94;5022303;28;20061;-67
2021/08/09 04:59:11;;;;;;;7.20;1.83;;;;;;;15.39;81.89;101124.03;5025912;28;20057;-66
2021/08/09 05:01:37;;;;;;;10.60;3.20;;;;;;;15.42;81.98;101130.09;5028183;28;20053;-67
2021/08/09 05:04:05;;;;;;;9.07;2.38;;;;;;;15.46;82.31;101127.31;5029626;28;20045;-66
2021/08/09 05:06:33;;;;;;;6.65;2.17;;;;;;;15.50;81.88;101128.06;5026206;28;20042;-66
2021/08/09 05:09:00;;;;;;;7.60;2.63;;;;;;;15.49;81.96;101129.84;5022838;28;20045;-68
2021/08/09 05:11:27;;;;;;;11.43;2.50;;;;;;;15.48;82.07;101128.13;5019721;28;20050;-67
2021/08/09 05:13:53;;;;;;;6.75;1.80;;;;;;;15.49;82.16;101135.09;5028992;28;20049;-67
2021/08/09 05:16:20;;;;;;;11.70;2.58;;;;;;;15.52;82.25;101142.81;5026026;28;20053;-67
2021/08/09 05:18:48;;;;;;;8.68;1.90;;;;;;;15.52;82.24;101134.97;5020551;28;20045;-67
2021/08/09 05:21:15;;;;;;;7.07;2.08;;;;;;;15.55;82.74;101141.88;5019182;28;20061;-65
2021/08/09 05:23:42;;;;;;;6.68;2.13;;;;;;;15.52;82.75;101147.22;5018312;28;20058;-67
2021/08/09 05:26:10;;;;;;;4.75;2.17;;;;;;;15.48;83.23;101146.47;5020711;28;20060;-67
2021/08/09 05:28:38;;;;;;;6.07;2.05;;;;;;;15.52;83.64;101147.22;5019434;28;20064;-68
2021/08/09 05:31:05;;;;;;;9.70;2.92;;;;;;;15.46;84.00;101150.06;5018669;28;20049;-66
2021/08/09 05:33:31;;;;;;;9.60;3.25;;;;;;;15.46;84.13;101152.69;5019567;28;20049;-67
2021/08/09 05:35:58;;;;;;;12.65;2.35;;;;;;;15.50;84.51;101149.03;5019666;28;20045;-67
2021/08/09 05:38:24;;;;;;;4.40;2.17;;;;;;;15.50;84.58;101149.03;5019343;28;20045;-67
2021/08/09 05:40:51;;;;;;;7.45;2.42;;;;;;;15.55;84.76;101150.59;5020407;28;20448;-67
2021/08/09 05:43:18;;;;;;;9.77;2.83;;;;;;;15.56;84.70;101148.84;5019167;28;20041;-67
2021/08/09 05:45:45;;;;;;;6.97;2.40;;;;;;;15.55;84.92;101152.38;5021833;28;20053;-67
2021/08/09 05:48:12;;;;;;;12.23;2.70;;;;;;;15.55;84.92;101153.22;5025681;28;20402;-67
2021/08/09 05:50:38;;;;;;;5.85;1.92;;;;;;;15.52;84.84;101148.06;5022989;28;20060;-67
2021/08/09 05:53:04;;;;;;;8.23;2.28;;;;;;;15.49;84.88;101147.31;5018568;28;20041;-67
2021/08/09 05:55:32;;;;;;;10.98;2.30;;;;;;;15.53;84.90;101151.56;5019698;28;20052;-67
2021/08/09 05:57:58;;;;;;;9.02;2.35;;;;;;;15.49;85.10;101150.81;5018965;28;22141;-67
2021/08/09 06:00:26;;;;;;;6.30;2.53;;;;;;;15.53;85.09;101147.16;5019179;28;20057;-67
2021/08/09 06:02:53;;;;;;;5.95;1.98;;;;;;;15.55;85.08;101147.13;5018358;28;20102;-68
2021/08/09 06:05:19;;;;;;;4.25;1.90;;;;;;;15.60;84.94;101152.22;5019007;28;20058;-68
2021/08/09 06:07:46;;;;;;;9.80;2.05;;;;;;;15.67;85.07;101151.09;5020962;28;20101;-68
2021/08/09 06:10:12;;;;;;;5.88;2.15;;;;;;;15.61;85.12;101154.78;5025752;28;20111;-68
2021/08/09 06:12:39;;;;;;;10.68;3.20;;;;;;;15.61;84.74;101153.94;5018888;28;20053;-67
2021/08/09 06:15:06;;;;;;;6.45;2.30;;;;;;;15.61;85.18;101151.31;5018815;28;20041;-67
2021/08/09 06:17:35;;;;;;;5.97;2.20;;;;;;;15.58;85.01;101152.25;5019084;28;20068;-67
2021/08/09 06:20:01;;;;;;;6.22;2.70;;;;;;;15.60;84.80;101150.44;5024839;28;20046;-67
2021/08/09 06:22:28;;;;;;;7.45;2.55;;;;;;;15.63;84.59;101154.72;5024301;28;20053;-67
2021/08/09 06:24:54;;;;;;;7.95;2.42;;;;;;;15.63;84.62;101158.22;5024637;28;20045;-67
2021/08/09 06:27:21;;;;;;;8.65;2.35;;;;;;;15.64;84.65;101157.31;5026613;28;20045;-67
2021/08/09 06:29:47;;;;;;;6.25;2.35;;;;;;;15.65;84.90;101172.13;5026926;28;20099;-66
2021/08/09 06:32:14;;;;;;;8.15;3.03;;;;;;;15.65;84.58;101171.25;5019513;28;20049;-67
2021/08/09 06:34:41;;;;;;;7.30;2.38;;;;;;;15.65;85.19;101166.91;5030625;28;20050;-67
2021/08/09 06:37:08;;;;;;;9.32;2.97;;;;;;;15.67;85.09;101161.59;5026297;28;20522;-67
2021/08/09 06:39:34;;;;;;;9.30;2.63;;;;;;;15.65;85.11;101166.03;5021708;28;20893;-67
2021/08/09 06:42:03;;;;;;;8.25;2.55;;;;;;;15.68;85.07;101174.63;5025983;28;20041;-67
2021/08/09 06:44:31;;;;;;;5.72;2.30;;;;;;;15.73;85.17;101184.13;5026466;28;20079;-67
2021/08/09 06:46:58;;;;;;;7.15;2.60;;;;;;;15.72;85.39;101179.78;5027112;28;20048;-67
2021/08/09 06:49:24;;;;;;;7.20;2.35;;;;;;;15.73;85.12;101181.50;5026081;28;20057;-67
2021/08/09 06:51:52;;;;;;;7.88;2.97;;;;;;;15.79;83.79;101186.53;5027243;28;20045;-67
2021/08/09 06:54:20;;;;;;;8.60;2.30;;;;;;;15.78;84.02;101183.06;5027769;28;20057;-67
2021/08/09 06:56:46;;;;;;;6.07;2.30;;;;;;;15.82;84.23;101176.78;5022804;28;20107;-67
2021/08/09 06:59:13;;;;;;;8.85;2.63;;;;;;;15.93;84.60;101175.59;5029242;28;20049;-67
2021/08/09 07:01:39;;;;;;;9.55;3.20;;;;;;;16.11;84.72;101176.72;5020388;28;20104;-68
2021/08/09 07:04:05;;;;;;;6.82;2.30;;;;;;;16.31;84.17;101186.53;5026159;28;20064;-67
2021/08/09 07:06:32;;;;;;;10.40;2.00;;;;;;;16.57;82.28;101184.72;5026942;28;20395;-67
2021/08/09 07:09:02;;;;;;;7.70;2.42;;;;;;;16.68;82.14;101181.66;5018475;28;20046;-67
2021/08/09 07:11:29;;;;;;;7.35;2.42;;;;;;;16.81;82.00;101176.81;5020277;28;20427;-68
2021/08/09 07:13:55;;;;;;;11.10;2.60;;;;;;;16.91;81.72;101179.03;5023725;28;20394;-67
2021/08/09 07:16:24;;;;;;;7.18;2.15;;;;;;;16.96;81.24;101180.66;5021320;28;20045;-67
2021/08/09 07:18:51;;;;;;;10.40;2.30;;;;;;;16.95;81.04;101179.78;5023723;28;20065;-67
2021/08/09 07:21:17;;;;;;;9.27;2.80;;;;;;;16.87;81.34;101179.19;5025529;28;20136;-67
2021/08/09 07:23:44;;;;;;;5.35;2.00;;;;;;;16.85;81.08;101184.53;5027963;28;20229;-66
2021/08/09 07:26:12;;;;;;;6.22;2.20;;;;;;;16.80;81.15;101194.34;5023932;28;20052;-66
2021/08/09 07:28:38;;;;;;;6.60;2.00;;;;;;;16.76;81.31;101187.50;5025288;28;20453;-66
2021/08/09 07:31:04;;;;;;;9.95;2.15;;;;;;;16.82;81.10;101191.69;5021756;28;20065;-66
2021/08/09 07:33:31;;;;;;;9.30;2.40;;;;;;;16.87;80.47;101187.09;5029475;28;20049;-66
2021/08/09 07:36:00;;;;;;;6.55;2.20;;;;;;;16.88;80.59;101189.66;5026123;28;20044;-67
2021/08/09 07:38:26;;;;;;;6.20;1.92;;;;;;;17.07;79.92;101189.84;5028537;28;20049;-67
2021/08/09 07:40:53;;;;;;;6.43;1.95;;;;;;;17.25;79.48;101193.50;5024039;28;20041;-68
2021/08/09 07:43:21;;;;;;;7.00;1.85;;;;;;;17.49;78.68;101197.84;5020499;28;24096;-67
2021/08/09 07:45:47;;;;;;;6.13;2.17;;;;;;;17.70;77.07;101188.19;5023699;28;20048;-67
2021/08/09 07:48:14;;;;;;;7.35;2.20;;;;;;;17.86;76.81;101188.41;5023314;28;20049;-68
2021/08/09 07:50:41;;;;;;;6.93;1.80;;;;;;;18.01;75.17;101186.91;5021906;28;20041;-68
2021/08/09 07:53:08;;;;;;;7.35;2.05;;;;;;;18.09;73.84;101186.59;5027712;28;20092;-67
2021/08/09 07:55:35;;;;;;;7.63;2.20;;;;;;;18.19;73.95;101190.53;5028336;28;20453;-67
2021/08/09 07:58:01;;;;;;;5.93;1.90;;;;;;;18.33;73.67;101198.66;5031540;28;20403;-67
2021/08/09 08:00:29;;;;;;;6.80;1.58;;;;;;;18.41;73.25;101179.88;5029960;28;20057;-67
2021/08/09 08:02:55;;;;;;;7.55;1.80;;;;;;;18.61;72.01;101184.25;5032517;28;20041;-67
2021/08/09 08:05:22;;;;;;;3.95;1.48;;;;;;;18.66;71.05;101181.41;5031330;28;20057;-66
2021/08/09 08:07:48;;;;;;;5.40;2.00;;;;;;;18.75;71.19;101174.84;5031814;28;20041;-66
2021/08/09 08:10:15;;;;;;;7.38;1.92;;;;;;;18.95;70.63;101177.44;5026537;28;20392;-68
2021/08/09 08:12:41;;;;;;;7.03;1.70;;;;;;;19.08;69.63;101174.22;5034586;28;20686;-68
2021/08/09 08:15:08;;;;;;;5.93;1.50;;;;;;;19.33;70.16;101180.91;5026877;28;20502;-67
2021/08/09 08:17:36;;;;;;;5.50;1.83;;;;;;;19.49;68.41;101175.75;5027566;28;20045;-68
2021/08/09 08:20:03;;;;;;;8.32;1.95;;;;;;;19.66;68.25;101185.47;5028517;28;20136;-66
2021/08/09 08:22:30;;;;;;;6.60;2.03;;;;;;;19.67;66.88;101181.88;5029740;28;20499;-67
2021/08/09 08:24:56;;;;;;;6.97;2.35;;;;;;;19.64;66.17;101182.03;5030562;28;20103;-66
2021/08/09 08:27:23;;;;;;;7.07;1.52;;;;;;;19.54;66.33;101179.84;5026490;28;20128;-67
2021/08/09 08:29:49;;;;;;;6.53;1.65;;;;;;;19.52;66.40;101184.34;5024093;28;20492;-65
2021/08/09 08:32:15;;;;;;;7.65;2.35;;;;;;;19.54;66.89;101185.13;5034543;28;20080;-67
2021/08/09 08:34:43;;;;;;;5.15;1.52;;;;;;;19.47;67.42;101182.88;5030490;28;20049;-67
2021/08/09 08:37:10;;;;;;;4.72;1.50;;;;;;;19.56;67.90;101185.91;5031945;28;20041;-68
2021/08/09 08:39:36;;;;;;;6.68;1.58;;;;;;;19.70;66.72;101182.59;5032651;28;20042;-68
2021/08/09 08:42:03;;;;;;;4.55;1.33;;;;;;;19.81;66.34;101184.69;5029781;28;20751;-67
2021/08/09 08:44:29;;;;;;;6.70;1.83;;;;;;;19.98;66.11;101189.13;5026875;28;20049;-67
2021/08/09 08:46:56;;;;;;;8.40;1.70;;;;;;;20.28;64.69;101177.03;5030560;28;20037;-67
2021/08/09 08:49:23;;;;;;;9.65;1.65;;;;;;;20.40;65.36;101179.03;5032108;28;20805;-67
2021/08/09 08:51:51;;;;;;;7.60;1.90;;;;;;;20.45;63.06;101178.78;5030284;28;20071;-67
2021/08/09 08:54:19;;;;;;;7.15;1.23;;;;;;;20.47;63.99;101177.75;5028702;28;20042;-67
2021/08/09 08:56:46;;;;;;;7.57;1.77;;;;;;;20.51;64.23;101181.94;5030595;28;20088;-67
2021/08/09 08:59:14;;;;;;;4.85;1.40;;;;;;;20.56;62.82;101180.84;5030125;28;20048;-67
2021/08/09 09:01:43;;;;;;;7.70;1.30;;;;;;;20.58;63.70;101179.81;5027426;28;20037;-67
2021/08/09 09:04:24;;;;;;;6.35;1.30;;;;;;;20.73;61.43;101182.56;5026418;28;20422;-67
2021/08/09 09:07:03;;;;;;;4.88;1.52;;;;;;;20.56;62.60;101175.56;5024982;28;20116;-67
2021/08/09 09:09:31;;;;;;;5.00;1.30;;;;;;;20.46;62.59;101181.34;5027589;28;20073;-67
2021/08/09 09:11:58;;;;;;;6.90;1.20;;;;;;;20.52;62.95;101182.78;5030146;28;20045;-67
2021/08/09 09:14:26;;;;;;;6.00;1.20;;;;;;;20.56;61.78;101186.13;5024063;28;20483;-67
2021/08/09 09:16:53;;;;;;;9.05;1.20;;;;;;;20.56;62.00;101187.00;5027030;28;20041;-67
2021/08/09 09:19:30;;;;;;;7.75;1.50;;;;;;;20.67;61.67;101184.59;5024886;28;20049;-67
2021/08/09 09:21:59;;;;;;;7.45;1.40;;;;;;;20.69;61.50;101181.00;5038409;22;20053;-66
2021/08/09 09:24:26;;;;;;;6.65;1.25;;;;;;;20.78;61.15;101181.41;5030721;28;20407;-68
2021/08/09 09:26:57;;;;;;;6.47;1.92;;;;;;;20.78;62.23;101186.69;5042876;28;20124;-66
2021/08/09 09:29:25;;;;;;;5.15;1.67;;;;;;;20.96;62.63;101189.25;5037190;28;20052;-67
2021/08/09 09:31:54;;;;;;;4.35;1.23;;;;;;;21.24;60.91;101185.03;5039367;28;20397;-66
2021/08/09 09:34:23;;;;;;;6.30;1.33;;;;;;;21.38;60.62;101184.25;5036372;28;20041;-67
2021/08/09 09:36:55;;;;;;;12.13;1.42;;;;;;;21.54;59.05;101184.19;5041888;28;20478;-66
2021/08/09 09:39:31;;;;;;;3.63;1.30;;;;;;;21.56;58.91;101187.63;5041435;28;20040;-66
2021/08/09 09:42:00;;;;;;;7.07;1.23;;;;;;;21.61;57.77;101184.72;5040184;28;20509;-66
2021/08/09 09:44:28;;;;;;;4.40;1.10;;;;;;;21.56;58.44;101187.63;5035712;28;20057;-66
2021/08/09 09:47:17;;;;;;;6.47;1.40;;;;;;;21.57;58.02;101194.63;5036451;28;20045;-66
2021/08/09 09:49:44;;;;;;;5.10;1.40;;;;;;;21.59;57.98;101190.13;5037061;28;20041;-66
2021/08/09 09:52:28;;;;;;;6.18;1.15;;;;;;;21.55;57.22;101186.78;5036572;28;20063;-63
2021/08/09 09:54:58;;;;;;;5.60;1.30;;;;;;;21.44;56.92;101183.91;5029274;28;20044;-64
2021/08/09 09:57:25;;;;;;;7.82;1.42;;;;;;;21.40;56.50;101192.94;5030946;28;20572;-66
2021/08/09 09:59:53;;;;;;;4.22;1.55;;;;;;;21.33;56.78;101178.38;5033517;28;20646;-66
2021/08/09 10:02:19;;;;;;;6.60;1.70;;;;;;;21.38;57.55;101190.41;5037409;28;20495;-67
2021/08/09 10:04:46;;;;;;;4.55;1.55;;;;;;;21.55;58.09;101196.50;5038833;28;20172;-66
2021/08/09 10:07:15;;;;;;;6.95;1.20;;;;;;;21.64;56.38;101189.84;5030796;28;20095;-66
2021/08/09 10:09:45;;;;;;;3.47;1.13;;;;;;;21.61;56.30;101196.16;5035824;28;20573;-67
2021/08/09 10:12:13;;;;;;;7.75;1.23;;;;;;;21.66;55.59;101195.91;5033635;28;20053;-66
2021/08/09 10:14:40;;;;;;;6.65;1.50;;;;;;;21.62;56.83;101199.69;5037898;28;20127;-67
2021/08/09 10:17:07;;;;;;;4.30;1.20;;;;;;;21.58;55.74;101194.56;5038455;28;20049;-66
2021/08/09 10:19:34;;;;;;;6.03;1.05;;;;;;;21.74;56.42;101194.50;5042297;28;20056;-67
2021/08/09 10:22:00;;;;;;;5.07;1.20;;;;;;;21.92;55.38;101186.41;5038494;28;20049;-66
2021/08/09 10:24:39;;;;;;;5.15;1.10;;;;;;;22.09;56.14;101189.84;5037901;28;20042;-67
2021/08/09 10:27:06;;;;;;;3.80;1.05;;;;;;;22.30;53.50;101193.84;5036711;28;20041;-68
2021/08/09 10:29:34;;;;;;;5.68;1.23;;;;;;;22.46;54.97;101192.91;5027153;28;20048;-67
2021/08/09 10:32:19;;;;;;;4.07;1.27;;;;;;;22.56;52.81;101186.06;5035303;28;20103;-65
2021/08/09 10:34:45;;;;;;;7.47;1.30;;;;;;;22.57;53.77;101193.09;5037658;28;20068;-66
2021/08/09 10:37:13;;;;;;;5.13;1.30;;;;;;;22.67;53.06;101180.09;5040540;28;20287;-67
2021/08/09 10:39:50;;;;;;;6.68;1.52;;;;;;;22.66;53.63;101184.56;5041338;28;20048;-67
2021/08/09 10:42:30;;;;;;;4.43;1.02;;;;;;;22.54;53.40;101181.81;5037713;28;20087;-67
2021/08/09 10:44:58;;;;;;;3.67;1.00;;;;;;;22.39;51.12;101192.41;5040859;28;20076;-68
2021/08/09 10:47:49;;;;;;;4.15;1.05;;;;;;;22.17;49.88;101183.13;5027360;28;20053;-66
2021/08/09 10:50:46;;;;;;;5.22;1.27;;;;;;;22.19;50.15;101189.19;5036484;28;20054;-67
2021/08/09 10:53:45;;;;;;;8.93;1.25;;;;;;;22.23;49.81;101187.19;5038301;28;20049;-66
2021/08/09 10:56:44;;;;;;;4.93;1.50;;;;;;;22.40;50.78;101193.25;5032792;28;20056;-67
2021/08/09 10:59:10;;;;;;;3.58;1.20;;;;;;;22.54;50.70;101184.47;5035078;28;20489;-67
2021/08/09 11:01:59;;;;;;;6.32;1.20;;;;;;;22.73;49.76;101190.31;5038135;28;20052;-67
2021/08/09 11:04:26;;;;;;;7.75;1.27;;;;;;;22.73;49.73;101194.75;5035976;28;20052;-67
2021/08/09 11:06:53;;;;;;;6.05;1.30;;;;;;;22.93;49.91;101190.84;5034736;28;20053;-66
2021/08/09 11:09:45;;;;;;;5.85;1.60;;;;;;;22.88;48.45;101185.84;5038061;28;20049;-67
2021/08/09 11:12:23;;;;;;;4.97;1.35;;;;;;;22.82;50.20;101186.22;5015655;28;20049;-66
2021/08/09 11:15:12;;;;;;;5.60;1.88;;;;;;;22.71;50.79;101191.38;5023992;28;20050;-65
2021/08/09 11:17:48;;;;;;;5.25;1.10;;;;;;;22.59;50.31;101198.28;5022225;28;20041;-66
2021/08/09 11:20:17;;;;;;;7.63;1.52;;;;;;;22.34;50.74;101195.34;5021779;28;20058;-66
2021/08/09 11:22:45;;;;;;;6.65;1.75;;;;;;;22.38;52.14;101201.28;5018669;28;20037;-67
2021/08/09 11:25:29;;;;;;;4.78;1.23;;;;;;;22.50;52.20;101199.72;5023002;28;20107;-66
2021/08/09 11:27:59;;;;;;;5.25;1.52;;;;;;;22.73;51.78;101187.66;5021044;28;20065;-67
2021/08/09 11:30:34;;;;;;;8.98;1.60;;;;;;;22.97;51.48;101192.34;5019326;28;20041;-66